Time;durP1;ratioP1;P1;durP2;ratioP2;P2;SDS_P1;SDS_P2;PMS_P1;PMS_P2;Temp;Humidity;BMP_temperature;BMP_pressure;BME280_temperature;BME280_humidity;BME280_pressure;Samples;Min_cycle;Max_cycle;Signal;HPM_P1;HPM_P2
2021/08/10 00:01:17;;;;;;;9.13;4.50;;;;;;;;;;5068869;28;20406;-67
2021/08/10 00:03:43;;;;;;;8.93;4.43;;;;;;;;;;5067302;28;20065;-69
2021/08/10 00:06:09;;;;;;;7.65;4.65;;;;;;;;;;5061624;28;20035;-66
2021/08/10 00:08:35;;;;;;;9.77;4.50;;;;;;;;;;5068522;28;20394;-69
2021/08/10 00:11:01;;;;;;;6.60;4.50;;;;;;;;;;5066756;28;20398;-69
2021/08/10 00:13:27;;;;;;;6.78;4.45;;;;;;;;;;5063054;28;20095;-69
2021/08/10 00:15:53;;;;;;;7.50;4.40;;;;;;;;;;5063626;28;20031;-67
2021/08/10 00:18:22;;;;;;;7.88;4.00;;;;;;;;;;5072739;28;20052;-68
2021/08/10 00:20:50;;;;;;;5.80;4.15;;;;;;;;;;5069011;28;20024;-67
2021/08/10 00:23:20;;;;;;;5.38;4.00;;;;;;;;;;5078049;28;20052;-69
2021/08/10 00:25:49;;;;;;;8.35;4.00;;;;;;;;;;5070594;28;20102;-67
2021/08/10 00:28:16;;;;;;;6.15;3.80;;;;;;;;;;5072451;28;20545;-69
2021/08/10 00:30:44;;;;;;;6.15;4.10;;;;;;;;;;5070545;28;20035;-69
2021/08/10 00:33:13;;;;;;;6.75;4.35;;;;;;;;;;5075975;28;20040;-69
2021/08/10 00:35:39;;;;;;;7.60;4.40;;;;;;;;;;5064489;28;20025;-68
2021/08/10 00:38:06;;;;;;;5.35;3.78;;;;;;;;;;5064704;28;20025;-69
2021/08/10 00:40:32;;;;;;;6.38;3.97;;;;;;;;;;5068996;28;20032;-67
2021/08/10 00:42:58;;;;;;;9.80;4.47;;;;;;;;;;5066728;28;20029;-69
2021/08/10 00:45:24;;;;;;;6.20;4.20;;;;;;;;;;5060817;28;20029;-67
2021/08/10 00:47:50;;;;;;;9.27;3.95;;;;;;;;;;5065773;28;20040;-67
2021/08/10 00:50:17;;;;;;;6.22;3.85;;;;;;;;;;5063130;28;20039;-68
2021/08/10 00:52:43;;;;;;;7.32;3.95;;;;;;;;;;5068074;28;20550;-68
2021/08/10 00:55:10;;;;;;;5.97;4.15;;;;;;;;;;5068052;28;20033;-68
2021/08/10 00:57:36;;;;;;;8.55;4.05;;;;;;;;;;5071694;28;20028;-69
2021/08/10 01:00:04;;;;;;;8.15;4.13;;;;;;;;;;5066010;28;20077;-68
2021/08/10 01:02:30;;;;;;;5.57;4.15;;;;;;;;;;5069858;28;20040;-68
2021/08/10 01:04:56;;;;;;;7.95;4.00;;;;;;;;;;5069968;28;20031;-68
2021/08/10 01:07:28;;;;;;;6.70;4.20;;;;;;;;;;5070401;28;20033;-68
2021/08/10 01:10:05;;;;;;;5.88;4.10;;;;;;;;;;5070302;28;20027;-69
2021/08/10 01:12:34;;;;;;;7.18;4.28;;;;;;;;;;5072709;28;20528;-67
2021/08/10 01:15:03;;;;;;;7.07;4.32;;;;;;;;;;5071376;28;20474;-68
2021/08/10 01:17:35;;;;;;;6.22;4.25;;;;;;;;;;5065584;28;20066;-69
2021/08/10 01:20:07;;;;;;;9.45;4.30;;;;;;;;;;5068425;28;20059;-68
2021/08/10 01:22:34;;;;;;;7.53;3.90;;;;;;;;;;5072994;28;20177;-67
2021/08/10 01:25:19;;;;;;;6.35;4.13;;;;;;;;;;5066740;28;20391;-69
2021/08/10 01:28:05;;;;;;;7.05;3.90;;;;;;;;;;5069761;28;20427;-68
2021/08/10 01:30:51;;;;;;;9.93;4.45;;;;;;;;;;5064454;28;20036;-68
2021/08/10 01:33:18;;;;;;;7.47;4.25;;;;;;;;;;5068866;28;20028;-69
2021/08/10 01:35:45;;;;;;;9.52;4.30;;;;;;;;;;5067177;28;20045;-68
2021/08/10 01:38:12;;;;;;;7.00;4.22;;;;;;;;;;5065277;28;20037;-68
2021/08/10 01:40:39;;;;;;;7.28;4.22;;;;;;;;;;5062738;28;20033;-69
2021/08/10 01:43:06;;;;;;;6.78;3.92;;;;;;;;;;5069718;28;20486;-68
2021/08/10 01:45:37;;;;;;;5.95;3.92;;;;;;;;;;5068403;28;20139;-68
2021/08/10 01:48:05;;;;;;;7.28;4.13;;;;;;;;;;5068066;28;20067;-69
2021/08/10 01:50:31;;;;;;;6.50;4.13;;;;;;;;;;5066044;28;20017;-68
2021/08/10 01:52:57;;;;;;;5.88;4.13;;;;;;;;;;5069124;28;20021;-66
2021/08/10 01:55:23;;;;;;;5.68;3.92;;;;;;;;;;5067821;28;20041;-66
2021/08/10 01:57:49;;;;;;;6.65;4.15;;;;;;;;;;5066037;28;20024;-68
2021/08/10 02:00:16;;;;;;;5.97;4.50;;;;;;;;;;5064311;28;20498;-68
2021/08/10 02:02:45;;;;;;;10.35;4.93;;;;;;;;;;5061845;28;20112;-68
2021/08/10 02:05:11;;;;;;;8.18;4.18;;;;;;;;;;5067831;28;20032;-68
2021/08/10 02:07:38;;;;;;;8.43;4.20;;;;;;;;;;5065313;28;20052;-68
2021/08/10 02:10:05;;;;;;;7.72;4.30;;;;;;;;;;5068024;28;20017;-68
2021/08/10 02:12:33;;;;;;;6.90;4.00;;;;;;;;;;5077959;28;20035;-68
2021/08/10 02:15:00;;;;;;;6.00;4.07;;;;;;;;;;5073042;28;20044;-67
2021/08/10 02:17:26;;;;;;;5.13;3.85;;;;;;;;;;5069611;28;20032;-68
2021/08/10 02:19:52;;;;;;;7.45;4.60;;;;;;;;;;5070184;28;20096;-68
2021/08/10 02:22:19;;;;;;;5.70;3.92;;;;;;;;;;5069760;28;20036;-68
2021/08/10 02:25:17;;;;;;;7.18;3.90;;;;;;;;;;5067830;28;20027;-68
2021/08/10 02:27:51;;;;;;;8.40;4.30;;;;;;;;;;5051373;28;20044;-68
2021/08/10 02:30:21;;;;;;;5.43;4.05;;;;;;;;;;5048324;28;20043;-67
2021/08/10 02:32:47;;;;;;;7.07;4.05;;;;;;;;;;5046542;28;20461;-68
2021/08/10 02:35:15;;;;;;;5.57;4.03;;;;;;;;;;5042888;28;20116;-68
2021/08/10 02:37:43;;;;;;;5.70;4.10;;;;;;;;;;5047517;28;20028;-68
2021/08/10 02:40:09;;;;;;;7.57;4.55;;;;;;;;;;5044000;28;20087;-67
2021/08/10 02:42:37;;;;;;;8.80;4.20;;;;;;;;;;5047680;28;20507;-69
2021/08/10 02:45:04;;;;;;;5.05;3.90;;;;;;;;;;5048446;28;20037;-69
2021/08/10 02:47:30;;;;;;;7.47;4.47;;;;;;;;;;5041286;28;20048;-67
2021/08/10 02:49:57;;;;;;;6.90;4.38;;;;;;;;;;5047676;28;20033;-69
2021/08/10 02:52:23;;;;;;;11.00;5.00;;;;;;;;;;5044221;28;20037;-67
2021/08/10 02:54:49;;;;;;;7.00;4.55;;;;;;;;;;5046876;28;20076;-69
2021/08/10 02:57:15;;;;;;;6.32;4.03;;;;;;;;;;5048061;28;20045;-67
2021/08/10 02:59:45;;;;;;;6.50;4.18;;;;;;;;;;5048114;28;20021;-68
2021/08/10 03:02:14;;;;;;;9.15;5.05;;;;;;;;;;5044182;28;20072;-68
2021/08/10 03:04:57;;;;;;;6.10;4.35;;;;;;;;;;5066690;28;20550;-68
2021/08/10 03:07:26;;;;;;;6.72;4.68;;;;;;;;;;5068237;28;20039;-68
2021/08/10 03:09:53;;;;;;;8.85;4.60;;;;;;;;;;5063628;28;20025;-69
2021/08/10 03:12:21;;;;;;;10.15;5.07;;;;;;;;;;5065560;28;20037;-67
2021/08/10 03:14:49;;;;;;;7.90;4.72;;;;;;;;;;5067887;28;20031;-68
2021/08/10 03:17:16;;;;;;;7.00;4.63;;;;;;;;;;5064244;28;20037;-67
2021/08/10 03:19:42;;;;;;;13.88;5.93;;;;;;;;;;5069051;28;20028;-68
2021/08/10 03:22:08;;;;;;;11.55;4.90;;;;;;;;;;5066192;28;20040;-67
2021/08/10 03:24:35;;;;;;;8.98;5.05;;;;;;;;;;5067266;28;20485;-68
2021/08/10 03:27:04;;;;;;;11.90;5.88;;;;;;;;;;5095238;28;20166;-68
2021/08/10 03:29:30;;;;;;;11.65;5.70;;;;;;;;;;5060273;28;20107;-67
2021/08/10 03:31:56;;;;;;;7.82;5.03;;;;;;;;;;5063621;28;20032;-67
2021/08/10 03:34:23;;;;;;;9.35;4.80;;;;;;;;;;5063782;28;20035;-67
2021/08/10 03:36:50;;;;;;;8.98;4.90;;;;;;;;;;5062541;28;20486;-68
2021/08/10 03:39:16;;;;;;;9.68;4.85;;;;;;;;;;5063531;28;20056;-68
2021/08/10 03:41:44;;;;;;;9.10;5.00;;;;;;;;;;5060928;28;20487;-69
2021/08/10 03:44:10;;;;;;;7.28;4.93;;;;;;;;;;5064805;28;20095;-68
2021/08/10 03:46:37;;;;;;;9.52;5.07;;;;;;;;;;5069322;28;20035;-69
2021/08/10 03:49:03;;;;;;;9.10;4.65;;;;;;;;;;5069872;28;20119;-69
2021/08/10 03:51:30;;;;;;;8.15;5.13;;;;;;;;;;5073930;28;20036;-69
2021/08/10 03:53:56;;;;;;;8.85;5.10;;;;;;;;;;5072351;28;20463;-68
2021/08/10 03:56:24;;;;;;;8.07;4.57;;;;;;;;;;5072768;28;20032;-67
2021/08/10 03:58:52;;;;;;;7.25;4.63;;;;;;;;;;5070077;28;20028;-69
2021/08/10 04:01:19;;;;;;;10.43;4.93;;;;;;;;;;5067502;28;20516;-67
2021/08/10 04:03:45;;;;;;;9.43;5.28;;;;;;;;;;5065126;28;20033;-69
2021/08/10 04:06:12;;;;;;;13.88;5.65;;;;;;;;;;5069340;28;20032;-69
2021/08/10 04:08:41;;;;;;;9.55;5.72;;;;;;;;;;5065080;28;20028;-68
2021/08/10 04:11:09;;;;;;;12.35;5.75;;;;;;;;;;5070618;28;20032;-68
2021/08/10 04:13:35;;;;;;;9.90;5.30;;;;;;;;;;5072067;28;20024;-66
2021/08/10 04:16:02;;;;;;;10.43;5.70;;;;;;;;;;5066666;28;20033;-67
2021/08/10 04:18:30;;;;;;;7.45;4.93;;;;;;;;;;5072216;28;20122;-70
2021/08/10 04:20:56;;;;;;;13.07;6.00;;;;;;;;;;5076061;28;20024;-68
2021/08/10 04:23:22;;;;;;;14.10;5.72;;;;;;;;;;5069161;28;20051;-68
2021/08/10 04:25:48;;;;;;;10.38;5.70;;;;;;;;;;5069352;28;20021;-70
2021/08/10 04:28:15;;;;;;;10.73;5.65;;;;;;;;;;5068836;28;20043;-72
2021/08/10 04:30:41;;;;;;;9.82;5.28;;;;;;;;;;5067421;28;20032;-66
2021/08/10 04:33:08;;;;;;;11.77;5.18;;;;;;;;;;5060897;28;20021;-65
2021/08/10 04:35:36;;;;;;;6.75;4.90;;;;;;;;;;5058371;28;20029;-70
2021/08/10 04:38:03;;;;;;;9.50;5.63;;;;;;;;;;5068246;28;20024;-66
2021/08/10 04:40:29;;;;;;;11.73;5.40;;;;;;;;;;5081198;28;20512;-66
2021/08/10 04:42:56;;;;;;;6.97;5.60;;;;;;;;;;5066703;28;20048;-68
2021/08/10 04:45:22;;;;;;;9.50;5.50;;;;;;;;;;5064367;28;20095;-72
2021/08/10 04:47:52;;;;;;;9.38;6.03;;;;;;;;;;5066801;28;20045;-71
2021/08/10 04:50:19;;;;;;;13.23;5.90;;;;;;;;;;5060206;28;20023;-72
2021/08/10 04:52:45;;;;;;;11.25;6.18;;;;;;;;;;5067898;28;20077;-71
2021/08/10 04:55:11;;;;;;;18.20;6.53;;;;;;;;;;5066654;28;20028;-69
2021/08/10 04:57:37;;;;;;;10.57;6.45;;;;;;;;;;5067008;28;20028;-73
2021/08/10 05:00:06;;;;;;;13.48;6.55;;;;;;;;;;5072437;28;20068;-69
2021/08/10 05:02:33;;;;;;;12.60;6.53;;;;;;;;;;5071194;28;20040;-68
2021/08/10 05:04:59;;;;;;;10.32;6.38;;;;;;;;;;5070735;28;20039;-70
2021/08/10 05:07:25;;;;;;;10.02;5.82;;;;;;;;;;5067664;28;20048;-72
2021/08/10 05:09:51;;;;;;;15.00;6.50;;;;;;;;;;5068471;28;20258;-73
2021/08/10 05:12:17;;;;;;;12.63;6.10;;;;;;;;;;5069250;28;20028;-71
2021/08/10 05:14:43;;;;;;;15.32;6.80;;;;;;;;;;5068935;28;20017;-73
2021/08/10 05:17:09;;;;;;;12.30;5.82;;;;;;;;;;5065027;28;20031;-74
2021/08/10 05:19:35;;;;;;;13.85;5.70;;;;;;;;;;5069731;28;20056;-73
2021/08/10 05:22:01;;;;;;;13.40;6.00;;;;;;;;;;5069894;28;20549;-72
2021/08/10 05:24:27;;;;;;;14.27;6.30;;;;;;;;;;5066588;28;20024;-73
2021/08/10 05:26:53;;;;;;;8.63;5.38;;;;;;;;;;5061840;28;20089;-72
2021/08/10 05:29:19;;;;;;;18.52;7.03;;;;;;;;;;5069402;28;20131;-84
2021/08/10 05:31:46;;;;;;;8.07;5.38;;;;;;;;;;5061556;28;20546;-71
2021/08/10 05:34:12;;;;;;;9.85;5.50;;;;;;;;;;5081394;28;20470;-75
2021/08/10 05:36:38;;;;;;;11.77;5.38;;;;;;;;;;5061280;28;20024;-74
2021/08/10 05:39:04;;;;;;;7.22;5.22;;;;;;;;;;5068247;28;20393;-65
2021/08/10 05:41:30;;;;;;;8.68;5.53;;;;;;;;;;5061820;28;20128;-68
2021/08/10 05:43:56;;;;;;;9.00;5.57;;;;;;;;;;5065597;28;20561;-76
2021/08/10 05:46:22;;;;;;;10.10;5.15;;;;;;;;;;5060337;28;20840;-76
2021/08/10 05:48:48;;;;;;;11.65;5.75;;;;;;;;;;5066174;28;20501;-77
2021/08/10 05:51:14;;;;;;;10.00;5.50;;;;;;;;;;5066488;28;20029;-74
2021/08/10 05:53:40;;;;;;;10.70;5.18;;;;;;;;;;5066384;28;20049;-67
2021/08/10 05:56:06;;;;;;;9.50;5.40;;;;;;;;;;5061244;28;20165;-69
2021/08/10 05:58:33;;;;;;;9.25;5.78;;;;;;;;;;5069610;28;20032;-74
2021/08/10 06:00:59;;;;;;;8.50;5.35;;;;;;;;;;5069332;28;20044;-77
2021/08/10 06:03:25;;;;;;;12.95;5.95;;;;;;;;;;5068514;28;20013;-68
2021/08/10 06:05:51;;;;;;;13.98;6.30;;;;;;;;;;5068965;28;20029;-76
2021/08/10 06:08:17;;;;;;;15.13;5.90;;;;;;;;;;5071471;28;20024;-73
2021/08/10 06:10:43;;;;;;;15.82;6.45;;;;;;;;;;5071884;28;20048;-76
2021/08/10 06:13:09;;;;;;;9.70;6.05;;;;;;;;;;5067707;28;20070;-75
2021/08/10 06:15:37;;;;;;;12.35;5.97;;;;;;;;;;5069224;28;20024;-70
2021/08/10 06:18:03;;;;;;;9.32;5.57;;;;;;;;;;5068743;28;20039;-76
2021/08/10 06:20:29;;;;;;;12.45;6.60;;;;;;;;;;5069456;28;20020;-70
2021/08/10 06:22:55;;;;;;;12.57;6.05;;;;;;;;;;5068055;28;20043;-75
2021/08/10 06:25:21;;;;;;;12.88;7.40;;;;;;;;;;5070770;28;20024;-77
2021/08/10 06:27:47;;;;;;;13.85;5.97;;;;;;;;;;5063386;28;20134;-77
2021/08/10 06:30:14;;;;;;;10.73;5.97;;;;;;;;;;5070567;28;20108;-67
2021/08/10 06:32:40;;;;;;;10.38;5.75;;;;;;;;;;5067121;28;20497;-67
2021/08/10 06:35:06;;;;;;;11.27;5.88;;;;;;;;;;5065600;28;20085;-72
2021/08/10 06:37:32;;;;;;;8.63;5.55;;;;;;;;;;5067527;28;20481;-77
2021/08/10 06:39:58;;;;;;;7.03;5.22;;;;;;;;;;5060272;28;20036;-66
2021/08/10 06:42:24;;;;;;;11.63;5.53;;;;;;;;;;5061534;28;20501;-75
2021/08/10 06:44:50;;;;;;;11.75;5.97;;;;;;;;;;5059418;28;20047;-77
2021/08/10 06:47:17;;;;;;;13.80;6.10;;;;;;;;;;5065560;28;20044;-73
2021/08/10 06:49:43;;;;;;;9.32;5.97;;;;;;;;;;5069677;28;20486;-77
2021/08/10 06:52:10;;;;;;;12.18;5.93;;;;;;;;;;5058344;28;20053;-76
2021/08/10 06:54:37;;;;;;;16.67;6.32;;;;;;;;;;5065311;28;20025;-69
2021/08/10 06:57:07;;;;;;;15.02;6.03;;;;;;;;;;5065441;28;20052;-77
2021/08/10 06:59:37;;;;;;;16.75;6.18;;;;;;;;;;5064838;28;20021;-71
2021/08/10 07:02:03;;;;;;;17.23;6.25;;;;;;;;;;5066396;28;20036;-69
2021/08/10 07:04:29;;;;;;;15.57;6.60;;;;;;;;;;5062360;28;20032;-76
2021/08/10 07:06:56;;;;;;;11.88;6.40;;;;;;;;;;5067966;28;20024;-74
2021/08/10 07:09:22;;;;;;;12.82;6.82;;;;;;;;;;5066373;28;20055;-66
2021/08/10 07:11:48;;;;;;;16.55;6.40;;;;;;;;;;5066655;28;20067;-76
2021/08/10 07:14:15;;;;;;;11.15;5.90;;;;;;;;;;5063807;28;20520;-65
2021/08/10 07:16:42;;;;;;;17.52;7.15;;;;;;;;;;5065081;28;20028;-68
2021/08/10 07:19:08;;;;;;;21.83;11.85;;;;;;;;;;5063091;28;20079;-74
2021/08/10 07:21:35;;;;;;;27.90;16.05;;;;;;;;;;5056762;28;20044;-68
2021/08/10 07:24:01;;;;;;;26.75;14.20;;;;;;;;;;5067700;28;20789;-78
2021/08/10 07:26:28;;;;;;;21.25;12.25;;;;;;;;;;5068500;28;20028;-75
2021/08/10 07:28:54;;;;;;;27.33;15.82;;;;;;;;;;5068429;28;20089;-76
2021/08/10 07:31:20;;;;;;;30.27;16.40;;;;;;;;;;5073645;28;20425;-68
2021/08/10 07:33:46;;;;;;;34.53;19.52;;;;;;;;;;5069389;28;20081;-74
2021/08/10 07:36:12;;;;;;;38.65;19.27;;;;;;;;;;5068149;28;20057;-67
2021/08/10 07:38:38;;;;;;;29.95;16.90;;;;;;;;;;5067696;28;20491;-81
2021/08/10 07:41:04;;;;;;;26.55;14.90;;;;;;;;;;5067995;28;20036;-79
2021/08/10 07:43:30;;;;;;;29.25;13.57;;;;;;;;;;5063929;28;20482;-69
2021/08/10 07:45:56;;;;;;;25.15;13.60;;;;;;;;;;5073095;28;20390;-73
2021/08/10 07:48:23;;;;;;;21.95;13.30;;;;;;;;;;5067857;28;20044;-71
2021/08/10 07:50:55;;;;;;;22.40;13.80;;;;;;;;;;5068133;28;20109;-73
2021/08/10 07:53:26;;;;;;;21.97;13.13;;;;;;;;;;5087632;28;20036;-72
2021/08/10 07:55:58;;;;;;;29.67;15.07;;;;;;;;;;5082704;28;20276;-73
2021/08/10 07:58:24;;;;;;;30.50;15.55;;;;;;;;;;5070725;28;20043;-72
2021/08/10 08:00:51;;;;;;;26.02;13.10;;;;;;;;;;5071827;28;20071;-73
2021/08/10 08:03:17;;;;;;;65.40;14.95;;;;;;;;;;5089867;28;20036;-70
2021/08/10 08:05:43;;;;;;;21.40;12.60;;;;;;;;;;5091114;28;20032;-71
2021/08/10 08:08:09;;;;;;;22.63;12.60;;;;;;;;;;5087737;28;20133;-72
2021/08/10 08:10:37;;;;;;;23.52;12.20;;;;;;;;;;5087378;28;20118;-73
2021/08/10 08:13:03;;;;;;;21.42;12.95;;;;;;;;;;5089306;28;20040;-73
2021/08/10 08:15:29;;;;;;;21.85;11.23;;;;;;;;;;5089562;28;20103;-71
2021/08/10 08:17:55;;;;;;;20.02;10.68;;;;;;;;;;5085753;28;20024;-73
2021/08/10 08:20:22;;;;;;;20.10;10.52;;;;;;;;;;5090597;28;20028;-68
2021/08/10 08:22:48;;;;;;;15.57;10.30;;;;;;;;;;5084759;28;20043;-72
2021/08/10 08:25:14;;;;;;;16.30;11.82;;;;;;;;;;5069739;28;20378;-69
2021/08/10 08:27:40;;;;;;;16.15;10.40;;;;;;;;;;5067712;28;20155;-71
2021/08/10 08:30:07;;;;;;;15.82;9.77;;;;;;;;;;5062903;28;20517;-69
2021/08/10 08:32:33;;;;;;;17.25;9.85;;;;;;;;;;5070256;28;20040;-72
2021/08/10 08:34:59;;;;;;;19.35;10.40;;;;;;;;;;5068623;28;20079;-70
2021/08/10 08:37:25;;;;;;;19.15;10.40;;;;;;;;;;5069531;28;20054;-71
2021/08/10 08:39:54;;;;;;;19.30;10.00;;;;;;;;;;5065462;28;20025;-71
2021/08/10 08:42:22;;;;;;;16.60;9.48;;;;;;;;;;5067395;28;20382;-73
2021/08/10 08:44:48;;;;;;;13.00;8.80;;;;;;;;;;5070115;28;20024;-73
2021/08/10 08:47:19;;;;;;;15.73;8.70;;;;;;;;;;5070405;28;20065;-73
2021/08/10 08:49:48;;;;;;;27.55;8.63;;;;;;;;;;5069422;28;20075;-73
2021/08/10 08:52:14;;;;;;;12.38;7.20;;;;;;;;;;5068746;28;20031;-69
2021/08/10 08:54:43;;;;;;;13.65;7.13;;;;;;;;;;5069766;28;20024;-72
2021/08/10 08:57:09;;;;;;;10.00;6.82;;;;;;;;;;5067136;28;20044;-72
2021/08/10 08:59:39;;;;;;;11.18;6.65;;;;;;;;;;5065273;28;20028;-76
2021/08/10 09:02:05;;;;;;;11.07;5.85;;;;;;;;;;5066440;28;20051;-71
2021/08/10 09:04:31;;;;;;;9.02;5.50;;;;;;;;;;5065465;28;20031;-69
2021/08/10 09:10:11;;;;;;;5.50;4.70;;;;;;;;;;5064169;28;20111;-74
2021/08/10 09:12:41;;;;;;;8.07;5.15;;;;;;;;;;5069167;28;20037;-71
2021/08/10 09:15:10;;;;;;;10.23;4.90;;;;;;;;;;5065828;28;20029;-77
2021/08/10 09:17:45;;;;;;;11.15;5.72;;;;;;;;;;5067670;28;20107;-71
2021/08/10 09:20:19;;;;;;;11.32;6.07;;;;;;;;;;5071259;28;20068;-72
2021/08/10 09:22:45;;;;;;;8.13;5.13;;;;;;;;;;5068405;28;20033;-72
2021/08/10 09:25:15;;;;;;;28.58;7.03;;;;;;;;;;5067795;28;20043;-74
2021/08/10 09:27:51;;;;;;;8.65;5.50;;;;;;;;;;5070360;28;20062;-73
2021/08/10 09:30:25;;;;;;;8.38;5.25;;;;;;;;;;5067196;28;20028;-76
2021/08/10 09:32:54;;;;;;;8.40;4.93;;;;;;;;;;5061124;28;20025;-71
2021/08/10 09:35:21;;;;;;;13.27;5.40;;;;;;;;;;5078872;28;20037;-72
2021/08/10 09:38:06;;;;;;;10.15;5.18;;;;;;;;;;5081464;28;20470;-70
2021/08/10 09:40:34;;;;;;;10.73;5.45;;;;;;;;;;5064643;28;20017;-83
2021/08/10 09:43:18;;;;;;;8.75;5.10;;;;;;;;;;5058850;28;20037;-72
2021/08/10 09:45:44;;;;;;;8.55;4.80;;;;;;;;;;5064669;28;20032;-71
2021/08/10 09:48:20;;;;;;;11.65;4.55;;;;;;;;;;5066919;28;20157;-68
2021/08/10 09:50:47;;;;;;;9.57;5.20;;;;;;;;;;5063197;28;20165;-70
2021/08/10 09:53:20;;;;;;;8.10;4.93;;;;;;;;;;5067789;28;20107;-68
2021/08/10 09:55:53;;;;;;;9.77;4.80;;;;;;;;;;5057696;28;20025;-72
2021/08/10 09:58:19;;;;;;;;;;;;;;;;;;5067252;28;20469;-68
2021/08/10 10:00:46;;;;;;;8.73;4.97;;;;;;;;;;5068932;28;19916;-66
2021/08/10 10:03:19;;;;;;;8.02;5.30;;;;;;;;;;5066668;28;20805;-67
2021/08/10 10:05:46;;;;;;;9.38;5.78;;;;;;;;;;5067898;28;20481;-65
2021/08/10 10:08:16;;;;;;;10.18;5.63;;;;;;;;;;5069470;28;20037;-69
2021/08/10 10:10:43;;;;;;;12.95;6.20;;;;;;;;;;5064565;28;20032;-66
2021/08/10 10:13:15;;;;;;;8.48;5.30;;;;;;;;;;5064160;28;20040;-69
2021/08/10 10:15:41;;;;;;;13.13;6.50;;;;;;;;;;5066526;28;20051;-68
2021/08/10 10:18:08;;;;;;;14.48;6.43;;;;;;;;;;5066960;28;20489;-72
2021/08/10 10:20:38;;;;;;;10.63;6.07;;;;;;;;;;5067200;28;20029;-72
2021/08/10 10:23:05;;;;;;;14.05;6.05;;;;;;;;;;5068600;28;20032;-71
2021/08/10 10:25:31;;;;;;;11.77;5.95;;;;;;;;;;5065657;28;20147;-67
2021/08/10 10:28:00;;;;;;;13.73;5.90;;;;;;;;;;5067045;28;20032;-67
2021/08/10 10:30:27;;;;;;;12.00;6.18;;;;;;;;;;5069300;28;20042;-69
2021/08/10 10:32:53;;;;;;;15.15;6.32;;;;;;;;;;5065396;28;20497;-67
2021/08/10 10:35:19;;;;;;;11.50;6.40;;;;;;;;;;5065754;28;20037;-69
2021/08/10 10:37:46;;;;;;;12.32;6.10;;;;;;;;;;5060964;28;20032;-68
2021/08/10 10:40:13;;;;;;;12.80;6.00;;;;;;;;;;5069336;28;20028;-68
2021/08/10 10:42:40;;;;;;;9.23;5.43;;;;;;;;;;5067365;28;20447;-69
2021/08/10 10:45:06;;;;;;;9.90;6.35;;;;;;;;;;5070090;28;20056;-72
2021/08/10 10:47:34;;;;;;;10.60;5.18;;;;;;;;;;5064796;28;20044;-71
2021/08/10 10:50:00;;;;;;;8.25;5.10;;;;;;;;;;5068430;28;20023;-66
2021/08/10 10:52:27;;;;;;;9.23;5.18;;;;;;;;;;5065581;28;20120;-77
2021/08/10 10:54:54;;;;;;;11.57;4.90;;;;;;;;;;5064458;28;20425;-81
2021/08/10 10:57:30;;;;;;;7.20;4.65;;;;;;;;;;5063666;28;20047;-68
2021/08/10 11:00:07;;;;;;;9.93;4.75;;;;;;;;;;5066707;28;20043;-74
2021/08/10 11:02:34;;;;;;;9.05;4.50;;;;;;;;;;5060991;28;20049;-68
2021/08/10 11:05:06;;;;;;;9.80;4.57;;;;;;;;;;5066312;28;20182;-74
2021/08/10 11:07:47;;;;;;;8.15;4.50;;;;;;;;;;5066998;28;20025;-67
2021/08/10 11:10:31;;;;;;;12.90;5.00;;;;;;;;;;5065026;28;20033;-68
2021/08/10 11:12:57;;;;;;;8.90;4.53;;;;;;;;;;5067003;28;20013;-68
2021/08/10 11:15:43;;;;;;;9.05;5.65;;;;;;;;;;5065779;28;20029;-70
2021/08/10 11:18:13;;;;;;;21.15;14.73;;;;;;;;;;5068847;28;20020;-69
2021/08/10 11:20:49;;;;;;;7.35;5.22;;;;;;;;;;5067874;28;20037;-71
2021/08/10 11:23:21;;;;;;;8.75;4.38;;;;;;;;;;5058192;28;20048;-68
2021/08/10 11:25:59;;;;;;;7.18;4.40;;;;;;;;;;5069058;28;20036;-70
2021/08/10 11:28:28;;;;;;;17.25;5.80;;;;;;;;;;5066595;28;20472;-72
2021/08/10 11:30:55;;;;;;;7.05;4.40;;;;;;;;;;5067820;28;20041;-71
2021/08/10 11:33:34;;;;;;;6.68;3.75;;;;;;;;;;5062399;28;20029;-73
2021/08/10 11:36:12;;;;;;;6.78;3.80;;;;;;;;;;5064743;28;20016;-78
2021/08/10 11:38:44;;;;;;;7.82;3.78;;;;;;;;;;5066193;28;20107;-69
2021/08/10 11:41:11;;;;;;;6.20;3.75;;;;;;;;;;5069311;28;20032;-68
2021/08/10 11:43:44;;;;;;;7.40;4.10;;;;;;;;;;5059329;28;20033;-67
2021/08/10 11:46:10;;;;;;;;;;;;;;;;;;5063705;28;20028;-69
2021/08/10 11:48:47;;;;;;;7.43;3.90;;;;;;;;;;5066245;28;19920;-68
2021/08/10 11:51:16;;;;;;;6.38;4.00;;;;;;;;;;5065293;28;20205;-68
2021/08/10 11:53:42;;;;;;;8.23;3.78;;;;;;;;;;5055133;28;20593;-68
2021/08/10 11:59:28;;;;;;;10.82;4.50;;;;;;;;;;5067108;28;20044;-75
2021/08/10 12:01:55;;;;;;;7.10;3.80;;;;;;;;;;5061806;28;20065;-71
2021/08/10 12:04:22;;;;;;;10.50;3.75;;;;;;;;;;5064531;28;20425;-69
2021/08/10 12:06:57;;;;;;;5.40;3.90;;;;;;;;;;5063107;28;20028;-70
2021/08/10 12:09:26;;;;;;;6.28;4.13;;;;;;;;;;5063711;28;20025;-71
2021/08/10 12:11:56;;;;;;;7.82;3.42;;;;;;;;;;5070067;28;20061;-70
2021/08/10 12:14:24;;;;;;;7.25;3.22;;;;;;;;;;5072739;28;20025;-69
2021/08/10 12:17:10;;;;;;;4.28;3.30;;;;;;;;;;5069944;28;20033;-77
2021/08/10 12:19:43;;;;;;;4.80;3.28;;;;;;;;;;5067879;28;20424;-74
2021/08/10 12:22:18;;;;;;;7.13;3.38;;;;;;;;;;5069772;28;20036;-75
2021/08/10 12:24:44;;;;;;;9.18;3.88;;;;;;;;;;5075203;28;20035;-67
2021/08/10 12:27:11;;;;;;;5.90;3.10;;;;;;;;;;5071085;28;20029;-66
2021/08/10 12:29:39;;;;;;;9.80;4.05;;;;;;;;;;5067357;28;20525;-83
2021/08/10 12:32:06;;;;;;;6.57;3.20;;;;;;;;;;5064383;28;20052;-78
2021/08/10 12:34:34;;;;;;;5.13;3.22;;;;;;;;;;5067429;28;20024;-79
2021/08/10 12:37:01;;;;;;;6.05;3.42;;;;;;;;;;5068792;28;20561;-69
2021/08/10 12:39:27;;;;;;;8.32;3.50;;;;;;;;;;5063163;28;20028;-74
2021/08/10 12:41:55;;;;;;;5.18;2.88;;;;;;;;;;5073144;28;20072;-73
2021/08/10 12:44:25;;;;;;;6.18;3.13;;;;;;;;;;5069810;28;20020;-67
2021/08/10 12:46:58;;;;;;;7.88;3.60;;;;;;;;;;5070435;28;20036;-75
2021/08/10 12:49:40;;;;;;;5.82;3.72;;;;;;;;;;5068976;28;20375;-72
2021/08/10 12:52:06;;;;;;;7.60;3.35;;;;;;;;;;5066534;28;20043;-69
2021/08/10 12:54:34;;;;;;;5.50;3.65;;;;;;;;;;5072426;28;20047;-69
2021/08/10 12:57:02;;;;;;;4.47;3.05;;;;;;;;;;5067366;28;20024;-75
2021/08/10 12:59:39;;;;;;;5.85;2.95;;;;;;;;;;5067558;28;20493;-74
2021/08/10 13:02:05;;;;;;;6.70;3.40;;;;;;;;;;5066135;28;20458;-74
2021/08/10 13:04:31;;;;;;;6.95;3.70;;;;;;;;;;5070531;28;20036;-67
2021/08/10 13:07:10;;;;;;;6.07;3.50;;;;;;;;;;5066246;28;20099;-76
2021/08/10 13:09:53;;;;;;;6.47;3.30;;;;;;;;;;5065027;28;20383;-72
2021/08/10 13:12:19;;;;;;;5.70;3.58;;;;;;;;;;5069141;28;20406;-75
2021/08/10 13:14:55;;;;;;;5.82;3.50;;;;;;;;;;5067717;28;20020;-78
2021/08/10 13:17:31;;;;;;;6.55;3.50;;;;;;;;;;5068803;28;20028;-69
2021/08/10 13:20:11;;;;;;;5.40;3.33;;;;;;;;;;5059060;28;20526;-66
2021/08/10 13:22:39;;;;;;;9.65;3.60;;;;;;;;;;5070940;28;20044;-71
2021/08/10 13:25:06;;;;;;;6.57;3.13;;;;;;;;;;5067616;28;20028;-72
2021/08/10 13:27:32;;;;;;;6.45;3.58;;;;;;;;;;5060562;28;20021;-71
2021/08/10 13:29:58;;;;;;;7.07;3.70;;;;;;;;;;5070996;28;20048;-74
2021/08/10 13:32:25;;;;;;;11.23;4.13;;;;;;;;;;5067831;28;20486;-75
2021/08/10 13:34:51;;;;;;;6.90;3.63;;;;;;;;;;5068035;28;20031;-77
2021/08/10 13:37:18;;;;;;;12.55;3.42;;;;;;;;;;5069404;28;20099;-76
2021/08/10 13:39:44;;;;;;;6.95;3.30;;;;;;;;;;5063052;28;20114;-69
2021/08/10 13:42:11;;;;;;;8.07;3.40;;;;;;;;;;5069433;28;20049;-72
2021/08/10 13:44:37;;;;;;;4.18;3.05;;;;;;;;;;5060296;28;20470;-72
2021/08/10 13:47:03;;;;;;;5.07;3.30;;;;;;;;;;5065947;28;20053;-75
2021/08/10 13:49:29;;;;;;;8.90;3.50;;;;;;;;;;5065755;28;20035;-67
2021/08/10 13:51:55;;;;;;;5.78;3.38;;;;;;;;;;5067283;28;20498;-69
2021/08/10 13:54:21;;;;;;;5.25;3.20;;;;;;;;;;5066431;28;20386;-69
2021/08/10 13:56:48;;;;;;;7.72;3.40;;;;;;;;;;5069938;28;20546;-70
2021/08/10 13:59:14;;;;;;;5.38;3.28;;;;;;;;;;5065237;28;20086;-71
2021/08/10 14:01:47;;;;;;;5.90;3.10;;;;;;;;;;5066167;28;20032;-73
2021/08/10 14:04:12;;;;;;;;;;;;;;;;;;5068179;28;20090;-69
2021/08/10 14:06:39;;;;;;;6.80;3.72;;;;;;;;;;5063199;28;20255;-70
2021/08/10 14:09:05;;;;;;;6.55;3.33;;;;;;;;;;5065498;28;20065;-68
2021/08/10 14:11:31;;;;;;;9.80;3.60;;;;;;;;;;5070290;28;20032;-71
2021/08/10 14:13:57;;;;;;;4.70;3.13;;;;;;;;;;5067435;28;20021;-73
2021/08/10 14:16:26;;;;;;;9.07;3.50;;;;;;;;;;5067697;28;20028;-71
2021/08/10 14:18:52;;;;;;;5.75;2.97;;;;;;;;;;5063410;28;20075;-71
2021/08/10 14:21:19;;;;;;;6.45;3.30;;;;;;;;;;5061098;28;20479;-70
2021/08/10 14:23:45;;;;;;;7.20;3.35;;;;;;;;;;5063360;28;20032;-71
2021/08/10 14:26:12;;;;;;;5.30;3.08;;;;;;;;;;5061877;28;20048;-69
2021/08/10 14:28:45;;;;;;;7.60;3.47;;;;;;;;;;5065499;28;20025;-73
2021/08/10 14:31:12;;;;;;;4.72;3.17;;;;;;;;;;5068622;28;20029;-74
2021/08/10 14:33:39;;;;;;;6.13;3.58;;;;;;;;;;5066425;28;20012;-72
2021/08/10 14:36:13;;;;;;;6.32;3.38;;;;;;;;;;5059604;28;20094;-73
2021/08/10 14:38:39;;;;;;;5.00;3.10;;;;;;;;;;5064537;28;20573;-76
2021/08/10 14:41:06;;;;;;;7.72;3.30;;;;;;;;;;5065341;28;20565;-75
2021/08/10 14:43:32;;;;;;;7.88;3.60;;;;;;;;;;5065561;28;20066;-74
2021/08/10 14:46:01;;;;;;;6.15;3.70;;;;;;;;;;5064613;28;20446;-73
2021/08/10 14:48:27;;;;;;;5.43;3.13;;;;;;;;;;5065052;28;20045;-71
2021/08/10 14:50:53;;;;;;;5.38;3.28;;;;;;;;;;5070278;28;20029;-73